createdAt,value
2018-06-15T00:02:20.063Z,16.26
2018-06-15T00:04:53.235Z,16.26
2018-06-15T00:07:27.641Z,16.26
2018-06-15T00:10:01.463Z,16.28
2018-06-15T00:12:35.170Z,16.32
2018-06-15T00:15:06.817Z,16.31
2018-06-15T00:18:04.128Z,16.35
2018-06-15T00:20:48.325Z,16.42
2018-06-15T00:23:20.821Z,16.39
2018-06-15T00:25:53.698Z,16.39
2018-06-15T00:28:26.476Z,16.36
2018-06-15T00:30:59.108Z,16.38
2018-06-15T00:33:32.645Z,16.54
2018-06-15T00:36:05.344Z,16.54
2018-06-15T00:38:37.909Z,16.60
2018-06-15T00:41:10.665Z,16.61
2018-06-15T00:43:43.096Z,16.53
2018-06-15T00:46:15.653Z,16.46
2018-06-15T00:48:48.365Z,16.46
2018-06-15T00:51:20.832Z,16.44
2018-06-15T00:53:54.871Z,16.45
2018-06-15T00:56:28.254Z,16.47
2018-06-15T00:59:00.625Z,16.55
2018-06-15T01:01:34.656Z,16.52
2018-06-15T01:04:08.331Z,16.48
2018-06-15T01:06:40.944Z,16.47
2018-06-15T01:09:14.128Z,16.38
2018-06-15T01:11:48.435Z,16.33
2018-06-15T01:14:20.971Z,16.38
2018-06-15T01:16:53.517Z,16.28
2018-06-15T01:19:26.364Z,16.24
2018-06-15T01:21:59.232Z,16.23
2018-06-15T01:24:31.639Z,16.24
2018-06-15T01:27:05.860Z,16.31
2018-06-15T01:29:38.324Z,16.41
2018-06-15T01:32:10.792Z,16.40
2018-06-15T01:34:43.641Z,16.39
2018-06-15T01:37:19.638Z,16.40
2018-06-15T01:39:52.260Z,16.40
2018-06-15T01:42:25.715Z,16.36
2018-06-15T01:44:59.844Z,16.38
2018-06-15T01:47:37.295Z,16.41
2018-06-15T01:50:10.026Z,16.43
2018-06-15T01:52:42.806Z,16.42
2018-06-15T01:55:16.423Z,16.47
2018-06-15T01:57:49.148Z,16.44
2018-06-15T02:00:22.009Z,16.43
2018-06-15T02:03:03.729Z,16.43
2018-06-15T02:05:36.673Z,16.42
2018-06-15T02:08:09.288Z,16.40
2018-06-15T02:10:44.954Z,16.40
2018-06-15T02:13:18.079Z,16.41
2018-06-15T02:15:50.844Z,16.54
2018-06-15T02:18:23.261Z,16.49
2018-06-15T02:20:57.379Z,16.53
2018-06-15T02:23:29.839Z,16.57
2018-06-15T02:26:04.339Z,16.50
2018-06-15T02:28:37.911Z,16.47
2018-06-15T02:31:10.444Z,16.45
2018-06-15T02:33:43.901Z,16.40
2018-06-15T02:36:17.864Z,16.31
2018-06-15T02:38:50.487Z,16.25
2018-06-15T02:41:23.063Z,16.15
2018-06-15T02:43:55.785Z,16.18
2018-06-15T02:46:28.182Z,16.26
2018-06-15T02:49:00.703Z,16.33
2018-06-15T02:51:34.593Z,16.39
2018-06-15T02:54:07.166Z,16.39
2018-06-15T02:56:40.032Z,16.38
2018-06-15T02:59:12.885Z,16.41
2018-06-15T03:01:45.440Z,16.49
2018-06-15T03:04:17.953Z,16.58
2018-06-15T03:06:50.713Z,16.50
2018-06-15T03:09:23.356Z,16.43
2018-06-15T03:11:55.901Z,16.51
2018-06-15T03:14:56.822Z,16.47
2018-06-15T03:17:32.978Z,16.47
2018-06-15T03:20:05.573Z,16.45
2018-06-15T03:22:41.076Z,16.42
2018-06-15T03:25:15.416Z,16.44
2018-06-15T03:27:48.084Z,16.41
2018-06-15T03:30:22.041Z,16.29
2018-06-15T03:35:27.600Z,16.20
2018-06-15T03:38:00.321Z,16.13
2018-06-15T03:40:32.691Z,16.10
2018-06-15T03:43:05.512Z,16.19
2018-06-15T03:45:38.331Z,16.13
2018-06-15T03:48:10.900Z,16.07
2018-06-15T03:50:43.991Z,16.04
2018-06-15T03:53:18.605Z,16.02
2018-06-15T03:55:51.195Z,16.01
2018-06-15T03:58:23.877Z,15.99
2018-06-15T04:00:58.231Z,16.01
2018-06-15T04:03:31.292Z,16.04
2018-06-15T04:06:03.725Z,16.06
2018-06-15T04:08:36.640Z,16.18
2018-06-15T04:11:09.984Z,16.21
2018-06-15T04:13:44.458Z,16.23
2018-06-15T04:16:17.149Z,16.24
2018-06-15T04:18:49.633Z,16.24
2018-06-15T04:21:22.190Z,16.25
2018-06-15T04:23:56.044Z,16.22
2018-06-15T04:26:28.484Z,16.31
2018-06-15T04:29:00.961Z,16.33
2018-06-15T04:31:36.504Z,16.50
2018-06-15T04:34:09.004Z,16.54
2018-06-15T04:36:43.425Z,16.71
2018-06-15T04:39:16.317Z,16.71
2018-06-15T04:41:48.612Z,16.70
2018-06-15T04:44:21.064Z,16.73
2018-06-15T04:46:54.736Z,16.76
2018-06-15T04:49:27.243Z,16.82
2018-06-15T04:52:00.017Z,16.86
2018-06-15T04:54:32.900Z,16.89
2018-06-15T04:57:05.490Z,16.94
2018-06-15T04:59:38.011Z,17.01
2018-06-15T05:02:11.670Z,17.08
2018-06-15T05:04:45.684Z,17.14
2018-06-15T05:07:17.987Z,17.15
2018-06-15T05:09:50.621Z,17.16
2018-06-15T05:12:24.223Z,17.18
2018-06-15T05:14:57.082Z,17.16
2018-06-15T05:17:33.250Z,17.17
2018-06-15T05:20:07.512Z,17.37
2018-06-15T05:22:40.049Z,17.47
2018-06-15T05:25:13.689Z,17.72
2018-06-15T05:27:46.396Z,17.87
2018-06-15T05:30:20.016Z,17.68
2018-06-15T05:32:53.735Z,17.77
2018-06-15T05:35:39.646Z,17.69
2018-06-15T05:38:13.628Z,17.78
2018-06-15T05:40:52.332Z,17.62
2018-06-15T05:43:25.175Z,17.50
2018-06-15T05:45:58.480Z,17.57
2018-06-15T05:48:31.249Z,17.66
2018-06-15T05:51:03.792Z,17.78
2018-06-15T05:53:38.548Z,17.71
2018-06-15T05:56:11.532Z,17.68
2018-06-15T05:58:44.658Z,17.72
2018-06-15T06:01:18.945Z,17.97
2018-06-15T06:03:52.384Z,18.26
2018-06-15T06:06:24.953Z,18.54
2018-06-15T06:09:00.464Z,18.78
2018-06-15T06:11:36.113Z,19.04
2018-06-15T06:14:10.404Z,19.10
2018-06-15T06:16:43.897Z,19.21
2018-06-15T06:19:16.710Z,19.43
2018-06-15T06:21:52.237Z,19.39
2018-06-15T06:24:25.884Z,19.32
2018-06-15T06:27:02.740Z,19.47
2018-06-15T06:29:35.780Z,19.76
2018-06-15T06:32:08.797Z,20.08
2018-06-15T06:34:43.076Z,20.27
2018-06-15T06:37:19.400Z,20.50
2018-06-15T06:39:51.843Z,20.68
2018-06-15T06:42:26.143Z,20.77
2018-06-15T06:44:58.587Z,20.38
2018-06-15T06:47:32.999Z,20.05
2018-06-15T06:50:09.191Z,19.89
2018-06-15T06:52:43.847Z,19.72
2018-06-15T06:55:17.117Z,19.70
2018-06-15T06:57:52.817Z,19.77
2018-06-15T07:00:25.261Z,20.03
2018-06-15T07:03:03.065Z,20.26
2018-06-15T07:05:36.936Z,20.60
2018-06-15T07:08:11.324Z,20.53
2018-06-15T07:10:44.608Z,20.55
2018-06-15T07:13:19.421Z,20.63
2018-06-15T07:15:52.005Z,20.94
2018-06-15T07:18:26.494Z,20.62
2018-06-15T07:21:01.276Z,20.70
2018-06-15T07:23:37.407Z,20.96
2018-06-15T07:26:12.666Z,21.38
2018-06-15T07:28:46.396Z,21.50
2018-06-15T07:31:19.304Z,21.29
2018-06-15T07:33:52.203Z,20.89
2018-06-15T07:36:26.784Z,21.15
2018-06-15T07:39:02.108Z,21.19
2018-06-15T07:41:35.667Z,20.84
2018-06-15T07:44:12.713Z,20.85
2018-06-15T07:46:47.568Z,20.92
2018-06-15T07:49:20.476Z,20.92
2018-06-15T07:51:54.107Z,21.06
2018-06-15T07:54:27.653Z,21.09
2018-06-15T07:57:04.632Z,21.10
2018-06-15T07:59:39.991Z,21.15
2018-06-15T08:02:16.730Z,21.26
2018-06-15T08:04:52.521Z,21.35
2018-06-15T08:07:28.594Z,21.49
2018-06-15T08:10:06.506Z,21.75
2018-06-15T08:12:40.854Z,21.43
2018-06-15T08:15:19.493Z,21.58
2018-06-15T08:17:59.943Z,22.27
2018-06-15T08:20:33.792Z,22.55
2018-06-15T08:23:08.120Z,22.80
2018-06-15T08:25:40.868Z,23.26
2018-06-15T08:28:15.145Z,23.58
2018-06-15T08:30:51.045Z,23.78
2018-06-15T08:33:25.242Z,23.17
2018-06-15T08:36:00.680Z,22.36
2018-06-15T08:38:33.527Z,22.37
2018-06-15T08:41:10.673Z,23.42
2018-06-15T08:43:45.359Z,24.12
2018-06-15T08:46:19.277Z,23.75
2018-06-15T08:48:52.419Z,23.48
2018-06-15T08:51:26.241Z,22.96
2018-06-15T08:54:01.716Z,23.02
2018-06-15T08:56:34.289Z,22.82
2018-06-15T08:59:08.697Z,22.81
2018-06-15T09:01:43.039Z,22.86
2018-06-15T09:04:17.218Z,22.71
2018-06-15T09:06:50.644Z,21.97
2018-06-15T09:09:23.517Z,21.94
2018-06-15T09:11:56.144Z,21.76
2018-06-15T09:14:31.556Z,21.75
2018-06-15T09:17:05.539Z,21.74
2018-06-15T09:19:40.928Z,22.26
2018-06-15T09:22:14.540Z,23.36
2018-06-15T09:24:47.011Z,24.05
2018-06-15T09:27:20.072Z,24.56
2018-06-15T09:29:56.128Z,25.02
2018-06-15T09:32:29.867Z,25.30
2018-06-15T09:35:03.519Z,25.66
2018-06-15T09:37:36.443Z,26.30
2018-06-15T09:40:08.976Z,25.89
2018-06-15T09:42:48.353Z,25.49
2018-06-15T09:45:23.929Z,25.84
2018-06-15T09:47:59.102Z,26.27
2018-06-15T09:50:33.672Z,27.01
2018-06-15T09:53:06.891Z,27.90
2018-06-15T09:55:40.012Z,26.29
2018-06-15T09:58:14.839Z,25.52
2018-06-15T10:00:52.012Z,25.13
2018-06-15T10:03:25.556Z,26.06
2018-06-15T10:05:59.488Z,25.88
2018-06-15T10:08:33.613Z,25.81
2018-06-15T10:11:09.100Z,25.39
2018-06-15T10:13:46.662Z,25.73
2018-06-15T10:16:23.584Z,26.24
2018-06-15T10:19:00.422Z,26.22
2018-06-15T10:21:33.448Z,25.58
2018-06-15T10:24:11.083Z,25.49
2018-06-15T10:26:45.648Z,26.38
2018-06-15T10:29:22.982Z,26.86
2018-06-15T10:31:58.319Z,26.64
2018-06-15T10:34:35.243Z,26.59
2018-06-15T10:37:10.051Z,26.86
2018-06-15T10:39:46.383Z,26.11
2018-06-15T10:42:20.356Z,26.24
2018-06-15T10:44:55.797Z,27.35
2018-06-15T10:47:31.840Z,27.82
2018-06-15T10:50:07.338Z,28.15
2018-06-15T10:52:44.021Z,28.04
2018-06-15T10:55:18.172Z,28.59
2018-06-15T10:57:51.683Z,28.33
2018-06-15T11:00:26.362Z,27.84
2018-06-15T11:02:58.712Z,27.66
2018-06-15T11:05:37.495Z,28.08
2018-06-15T11:08:13.271Z,28.77
2018-06-15T11:10:47.043Z,27.93
2018-06-15T11:13:21.265Z,27.82
2018-06-15T11:15:57.316Z,28.46
2018-06-15T11:18:32.037Z,29.37
2018-06-15T11:21:06.024Z,29.16
2018-06-15T11:23:41.480Z,28.60
2018-06-15T11:26:13.774Z,27.95
2018-06-15T11:28:47.887Z,28.19
2018-06-15T11:31:23.722Z,27.60
2018-06-15T11:33:58.266Z,27.33
2018-06-15T11:36:32.676Z,27.63
2018-06-15T11:39:10.576Z,27.03
2018-06-15T11:41:43.168Z,26.23
2018-06-15T11:44:18.486Z,25.90
2018-06-15T11:46:54.153Z,25.76
2018-06-15T11:49:29.442Z,25.79
2018-06-15T11:52:04.308Z,25.91
2018-06-15T11:54:38.769Z,26.46
2018-06-15T11:57:12.895Z,27.01
2018-06-15T11:59:46.919Z,26.64
2018-06-15T12:02:20.455Z,26.56
2018-06-15T12:04:56.083Z,27.24
2018-06-15T12:07:47.432Z,27.72
2018-06-15T12:10:20.667Z,28.03
2018-06-15T12:12:53.854Z,28.11
2018-06-15T12:15:28.711Z,28.66
2018-06-15T12:18:02.533Z,28.22
2018-06-15T12:20:36.827Z,28.38
2018-06-15T12:23:14.621Z,28.28
2018-06-15T12:25:48.401Z,28.32
2018-06-15T12:28:21.975Z,28.92
2018-06-15T12:30:57.729Z,29.14
2018-06-15T12:33:30.669Z,29.02
2018-06-15T12:36:04.677Z,27.86
2018-06-15T12:38:39.695Z,27.69
2018-06-15T12:41:17.094Z,27.56
2018-06-15T12:44:00.368Z,27.84
2018-06-15T12:46:36.593Z,28.31
2018-06-15T12:49:11.583Z,28.82
2018-06-15T12:51:46.456Z,28.87
2018-06-15T12:54:24.096Z,28.64
2018-06-15T12:57:02.349Z,29.54
2018-06-15T12:59:36.017Z,28.91
2018-06-15T13:02:10.754Z,28.41
2018-06-15T13:04:45.475Z,27.70
2018-06-15T13:07:20.731Z,26.81
2018-06-15T13:09:59.074Z,26.85
2018-06-15T13:12:34.383Z,27.07
2018-06-15T13:15:07.191Z,26.81
2018-06-15T13:17:41.372Z,26.96
2018-06-15T13:20:14.399Z,26.68
2018-06-15T13:22:47.406Z,26.10
2018-06-15T13:25:21.466Z,26.19
2018-06-15T13:27:56.434Z,26.45
2018-06-15T13:30:30.733Z,26.82
2018-06-15T13:33:04.993Z,27.28
2018-06-15T13:35:37.886Z,27.64
2018-06-15T13:38:11.471Z,27.42
2018-06-15T13:40:44.344Z,27.27
2018-06-15T13:43:19.755Z,27.45
2018-06-15T13:45:54.756Z,27.74
2018-06-15T13:48:28.827Z,27.63
2018-06-15T13:51:01.544Z,27.83
2018-06-15T13:53:36.129Z,28.74
2018-06-15T13:56:10.524Z,28.68
2018-06-15T13:58:45.997Z,28.20
2018-06-15T14:01:23.786Z,27.71
2018-06-15T14:03:58.447Z,28.40
2018-06-15T14:06:32.615Z,28.80
2018-06-15T14:09:09.355Z,28.39
2018-06-15T14:11:51.078Z,27.95
2018-06-15T14:14:26.328Z,27.87
2018-06-15T14:17:02.185Z,28.09
2018-06-15T14:19:38.129Z,27.72
2018-06-15T14:22:11.316Z,27.70
2018-06-15T14:24:46.422Z,27.63
2018-06-15T14:27:22.650Z,27.98
2018-06-15T14:30:05.933Z,28.49
2018-06-15T14:32:40.837Z,28.70
2018-06-15T14:35:13.372Z,28.69
2018-06-15T14:37:46.357Z,28.69
2018-06-15T14:40:20.045Z,27.51
2018-06-15T14:42:52.636Z,27.09
2018-06-15T14:45:29.084Z,27.01
2018-06-15T14:48:04.756Z,26.88
2018-06-15T14:50:43.201Z,26.90
2018-06-15T14:53:18.836Z,27.06
2018-06-15T14:55:53.627Z,27.71
2018-06-15T14:58:41.061Z,27.98
2018-06-15T15:01:18.236Z,28.18
2018-06-15T15:03:53.044Z,28.82
2018-06-15T15:06:26.913Z,29.32
2018-06-15T15:09:01.734Z,29.36
2018-06-15T15:11:36.076Z,29.22
2018-06-15T15:14:11.896Z,28.79
2018-06-15T15:16:46.135Z,27.74
2018-06-15T15:19:24.372Z,27.48
2018-06-15T15:22:00.690Z,26.80
2018-06-15T15:24:34.860Z,26.54
2018-06-15T15:27:09.193Z,26.33
2018-06-15T15:29:43.794Z,26.46
2018-06-15T15:32:18.164Z,26.50
2018-06-15T15:34:51.508Z,26.48
2018-06-15T15:37:27.826Z,26.15
2018-06-15T15:40:01.716Z,25.96
2018-06-15T15:42:34.952Z,25.63
2018-06-15T15:45:08.104Z,25.40
2018-06-15T15:47:43.025Z,25.29
2018-06-15T15:50:15.468Z,25.12
2018-06-15T15:52:48.366Z,25.16
2018-06-15T15:55:22.566Z,25.24
2018-06-15T15:57:57.033Z,25.31
2018-06-15T16:00:32.304Z,25.78
2018-06-15T16:03:08.101Z,26.42
2018-06-15T16:05:44.932Z,26.47
2018-06-15T16:08:19.276Z,26.10
2018-06-15T16:10:54.678Z,25.85
2018-06-15T16:13:32.185Z,25.90
2018-06-15T16:16:07.424Z,25.90
2018-06-15T16:18:42.989Z,26.21
2018-06-15T16:21:18.709Z,26.64
2018-06-15T16:23:54.187Z,26.57
2018-06-15T16:26:29.542Z,26.10
2018-06-15T16:29:02.076Z,25.93
2018-06-15T16:31:35.912Z,26.25
2018-06-15T16:34:09.367Z,26.87
2018-06-15T16:36:49.650Z,27.50
2018-06-15T16:39:59.425Z,27.60
2018-06-15T16:42:35.972Z,27.49
2018-06-15T16:45:42.468Z,27.47
2018-06-15T16:48:32.780Z,27.12
2018-06-15T16:51:09.960Z,26.94
2018-06-15T16:53:58.388Z,27.03
2018-06-15T16:56:35.161Z,26.83
2018-06-15T16:59:13.014Z,26.92
2018-06-15T17:01:54.914Z,27.36
2018-06-15T17:04:30.351Z,27.76
2018-06-15T17:07:05.673Z,28.43
2018-06-15T17:09:40.321Z,28.90
2018-06-15T17:12:19.281Z,29.49
2018-06-15T17:14:55.181Z,29.60
2018-06-15T17:17:32.815Z,29.55
2018-06-15T17:20:06.474Z,29.74
2018-06-15T17:22:39.948Z,29.67
2018-06-15T17:25:12.844Z,29.61
2018-06-15T17:27:47.312Z,29.23
2018-06-15T17:30:20.377Z,28.79
2018-06-15T17:32:56.528Z,28.33
2018-06-15T17:35:30.933Z,28.04
2018-06-15T17:38:06.236Z,27.83
2018-06-15T17:40:41.449Z,27.72
2018-06-15T17:43:15.985Z,27.35
2018-06-15T17:45:50.788Z,26.87
2018-06-15T17:48:32.614Z,26.50
2018-06-15T17:51:07.078Z,26.27
2018-06-15T17:53:41.541Z,26.24
2018-06-15T17:56:15.440Z,25.94
2018-06-15T17:58:49.768Z,25.79
2018-06-15T18:01:24.968Z,25.58
2018-06-15T18:04:13.699Z,25.53
2018-06-15T18:06:56.580Z,25.41
2018-06-15T18:09:38.443Z,25.29
2018-06-15T18:12:24.690Z,25.23
2018-06-15T18:14:59.473Z,25.14
2018-06-15T18:17:33.693Z,24.90
2018-06-15T19:07:50.170Z,23.06
2018-06-15T19:10:26.764Z,22.88
2018-06-15T19:13:01.101Z,22.75
2018-06-15T19:15:38.942Z,22.60
2018-06-15T19:18:11.684Z,22.33
2018-06-15T19:20:45.786Z,22.19
2018-06-15T19:23:21.625Z,22.10
2018-06-15T19:25:55.274Z,21.98
2018-06-15T19:28:30.755Z,21.87
2018-06-15T19:31:18.029Z,21.75
2018-06-15T19:33:53.301Z,21.54
2018-06-15T19:36:26.601Z,21.30
2018-06-15T19:39:00.088Z,21.11
2018-06-15T19:41:33.818Z,20.86
2018-06-15T19:44:07.119Z,20.62
2018-06-15T19:46:41.037Z,20.46
2018-06-15T19:49:15.608Z,20.40
2018-06-15T19:51:52.549Z,20.35
2018-06-15T19:54:28.457Z,20.24
2018-06-15T19:57:04.410Z,20.07
2018-06-15T19:59:40.501Z,19.88
2018-06-15T20:02:15.496Z,19.73
2018-06-15T20:04:51.120Z,19.59
2018-06-15T20:07:27.963Z,19.42
2018-06-15T20:10:05.232Z,19.29
2018-06-15T20:12:40.632Z,19.14
2018-06-15T20:15:22.349Z,19.02
2018-06-15T20:17:58.786Z,18.98
2018-06-15T20:20:49.565Z,18.88
2018-06-15T20:23:34.431Z,18.73
2018-06-15T20:26:27.313Z,18.54
2018-06-15T20:29:00.851Z,18.40
2018-06-15T20:31:37.727Z,18.22
2018-06-15T20:34:11.931Z,18.10
2018-06-15T20:36:45.484Z,18.00
2018-06-15T20:39:19.398Z,17.89
2018-06-15T20:41:53.325Z,17.78
2018-06-15T20:44:37.672Z,17.70
2018-06-15T20:47:12.395Z,17.62
2018-06-15T20:49:49.965Z,17.52
2018-06-15T20:52:23.307Z,17.49
2018-06-15T20:54:59.792Z,17.38
2018-06-15T20:57:35.748Z,17.37
2018-06-15T21:00:15.416Z,17.29
2018-06-15T21:02:49.864Z,17.20
2018-06-15T21:05:26.118Z,17.13
2018-06-15T21:07:59.541Z,17.11
2018-06-15T21:10:36.706Z,17.11
2018-06-15T21:13:13.820Z,17.27
2018-06-15T21:15:51.097Z,17.28
2018-06-15T21:19:07.404Z,17.23
2018-06-15T21:21:41.677Z,17.16
2018-06-15T21:24:20.734Z,17.10
2018-06-15T21:27:05.130Z,17.01
2018-06-15T21:29:45.389Z,16.93
2018-06-15T21:32:19.564Z,16.85
2018-06-15T21:34:54.033Z,16.78
2018-06-15T21:37:29.621Z,16.76
2018-06-15T21:40:03.833Z,16.75
2018-06-15T21:42:43.723Z,16.80
2018-06-15T21:45:18.904Z,16.91
2018-06-15T21:47:54.876Z,17.03
2018-06-15T21:50:31.261Z,17.01
2018-06-15T21:53:10.830Z,16.97
2018-06-15T21:55:46.731Z,16.93
2018-06-15T21:58:20.705Z,16.86
2018-06-15T22:00:56.614Z,16.77
2018-06-15T22:03:31.633Z,16.72
2018-06-15T22:06:06.531Z,16.71
2018-06-15T22:08:45.124Z,16.72
2018-06-15T22:11:23.233Z,16.71
2018-06-15T22:13:57.838Z,16.67
2018-06-15T22:16:39.579Z,16.63
2018-06-15T22:19:14.531Z,16.57
2018-06-15T22:21:49.547Z,16.49
2018-06-15T22:24:29.507Z,16.43
2018-06-15T22:27:02.797Z,16.35
2018-06-15T22:29:38.943Z,16.25
2018-06-15T22:32:15.150Z,16.20
2018-06-15T22:34:48.978Z,16.15
2018-06-15T22:37:22.337Z,16.09
2018-06-15T22:39:58.676Z,16.03
2018-06-15T22:42:33.306Z,15.96
2018-06-15T22:45:09.603Z,15.89
2018-06-15T22:47:48.035Z,15.83
2018-06-15T22:50:22.534Z,15.78
2018-06-15T22:52:57.131Z,15.77
2018-06-15T22:55:29.747Z,15.71
2018-06-15T22:58:03.425Z,15.54
2018-06-15T23:00:37.748Z,15.56
2018-06-15T23:03:12.458Z,15.56
2018-06-15T23:05:46.594Z,15.42
2018-06-15T23:08:20.986Z,15.29
2018-06-15T23:10:53.633Z,15.21
2018-06-15T23:13:26.833Z,15.15
2018-06-15T23:16:00.664Z,15.13
2018-06-15T23:18:33.491Z,15.15
2018-06-15T23:21:06.809Z,15.25
2018-06-15T23:23:43.619Z,15.33
2018-06-15T23:26:17.320Z,15.27
2018-06-15T23:28:50.819Z,15.23
2018-06-15T23:31:23.925Z,15.17
2018-06-15T23:33:57.282Z,15.15
2018-06-15T23:36:29.870Z,15.26
2018-06-15T23:39:06.141Z,15.24
2018-06-15T23:41:41.209Z,15.33
2018-06-15T23:44:13.612Z,15.25
2018-06-15T23:46:46.572Z,15.20
2018-06-15T23:49:21.250Z,15.20
2018-06-15T23:51:53.821Z,15.21
2018-06-15T23:54:27.964Z,15.18
2018-06-15T23:57:02.150Z,15.09
2018-06-15T23:59:37.434Z,14.97
